createdAt,value
2024-03-24T00:00:35.374Z,64.87
2024-03-24T00:03:23.210Z,64.92
2024-03-24T00:05:51.092Z,65.19
2024-03-24T00:08:18.922Z,65.73
2024-03-24T00:10:49.854Z,65.16
2024-03-24T00:13:18.183Z,63.66
2024-03-24T00:15:46.079Z,63.42
2024-03-24T00:18:13.944Z,63.26
2024-03-24T00:20:42.171Z,65.33
2024-03-24T00:23:10.156Z,63.43
2024-03-24T00:25:38.333Z,63.99
2024-03-24T00:28:06.720Z,64.72
2024-03-24T00:30:34.639Z,65.04
2024-03-24T00:33:02.595Z,65.38
2024-03-24T00:35:31.375Z,63.92
2024-03-24T00:37:59.227Z,64.52
2024-03-24T00:40:27.599Z,65.89
2024-03-24T00:42:56.971Z,64.48
2024-03-24T00:45:24.825Z,66.02
2024-03-24T00:47:53.004Z,65.14
2024-03-24T00:50:20.837Z,64.62
2024-03-24T00:52:48.674Z,64.69
2024-03-24T00:55:16.533Z,65.65
2024-03-24T00:57:44.363Z,64.40
2024-03-24T01:00:13.251Z,64.40
2024-03-24T01:02:41.134Z,66.08
2024-03-24T01:05:09.398Z,64.88
2024-03-24T01:07:37.227Z,63.88
2024-03-24T01:10:05.589Z,63.65
2024-03-24T01:12:33.477Z,63.53
2024-03-24T01:15:01.284Z,63.63
2024-03-24T01:17:29.266Z,63.69
2024-03-24T01:19:57.140Z,63.62
2024-03-24T01:22:24.952Z,63.58
2024-03-24T01:24:52.793Z,63.61
2024-03-24T01:27:20.616Z,63.23
2024-03-24T01:29:48.444Z,63.69
2024-03-24T01:32:16.323Z,64.07
2024-03-24T01:34:44.163Z,64.01
2024-03-24T01:37:11.978Z,64.14
2024-03-24T01:39:44.035Z,64.48
2024-03-24T01:42:11.863Z,66.27
2024-03-24T01:44:40.383Z,65.65
2024-03-24T01:47:10.387Z,66.66
2024-03-24T01:49:40.611Z,66.83
2024-03-24T01:52:09.893Z,67.39
2024-03-24T01:54:38.328Z,67.56
2024-03-24T01:57:06.500Z,66.77
2024-03-24T01:59:35.329Z,66.75
2024-03-24T02:02:03.275Z,67.66
2024-03-24T02:04:31.355Z,67.33
2024-03-24T02:07:00.414Z,67.63
2024-03-24T02:09:28.294Z,68.21
2024-03-24T02:11:56.496Z,68.51
2024-03-24T02:14:24.426Z,68.57
2024-03-24T02:16:52.263Z,69.02
2024-03-24T02:19:20.078Z,69.30
2024-03-24T02:21:47.991Z,70.23
2024-03-24T02:24:15.809Z,70.56
2024-03-24T02:26:43.738Z,70.26
2024-03-24T02:29:14.171Z,71.27
2024-03-24T02:31:42.645Z,70.06
2024-03-24T02:34:11.924Z,71.08
2024-03-24T02:36:39.961Z,71.04
2024-03-24T02:39:07.907Z,70.74
2024-03-24T02:41:35.790Z,71.18
2024-03-24T02:44:03.617Z,71.88
2024-03-24T02:46:31.437Z,71.82
2024-03-24T02:48:59.277Z,71.81
2024-03-24T02:51:27.125Z,72.74
2024-03-24T02:53:54.956Z,73.07
2024-03-24T02:56:22.846Z,73.29
2024-03-24T02:58:50.658Z,73.56
2024-03-24T03:01:19.294Z,73.74
2024-03-24T03:03:47.450Z,74.00
2024-03-24T03:06:15.943Z,74.20
2024-03-24T03:08:43.790Z,73.91
2024-03-24T03:11:11.598Z,73.95
2024-03-24T03:13:39.476Z,73.55
2024-03-24T03:16:07.773Z,73.46
2024-03-24T03:18:35.632Z,73.28
2024-03-24T03:21:03.917Z,73.03
2024-03-24T03:23:31.738Z,72.93
2024-03-24T03:25:59.556Z,72.81
2024-03-24T03:28:27.409Z,73.80
2024-03-24T03:30:55.235Z,73.77
2024-03-24T03:33:24.815Z,73.33
2024-03-24T03:35:53.141Z,74.15
2024-03-24T03:38:20.995Z,73.87
2024-03-24T03:40:48.802Z,73.77
2024-03-24T03:43:17.816Z,73.79
2024-03-24T03:45:45.655Z,74.54
2024-03-24T03:48:13.696Z,74.37
2024-03-24T03:50:42.353Z,73.89
2024-03-24T03:53:12.169Z,73.65
2024-03-24T03:55:40.490Z,73.27
2024-03-24T03:58:08.347Z,73.65
2024-03-24T04:00:36.566Z,73.14
2024-03-24T04:03:04.905Z,72.85
2024-03-24T04:05:32.738Z,73.59
2024-03-24T04:08:00.583Z,73.39
2024-03-24T04:10:28.466Z,73.50
2024-03-24T04:12:56.625Z,75.25
2024-03-24T04:15:24.473Z,75.20
2024-03-24T04:17:52.375Z,75.44
2024-03-24T04:20:20.249Z,75.09
2024-03-24T04:22:48.692Z,75.07
2024-03-24T04:25:16.560Z,75.36
2024-03-24T04:27:44.452Z,74.54
2024-03-24T04:30:14.359Z,74.49
2024-03-24T04:32:42.645Z,75.77
2024-03-24T04:35:10.593Z,74.71
2024-03-24T04:37:38.437Z,74.85
2024-03-24T04:40:07.026Z,75.13
2024-03-24T04:42:35.072Z,75.41
2024-03-24T04:45:03.555Z,76.79
2024-03-24T04:47:31.800Z,76.85
2024-03-24T04:49:59.837Z,76.22
2024-03-24T04:52:27.665Z,76.04
2024-03-24T04:54:55.526Z,76.98
2024-03-24T04:57:23.598Z,76.55
2024-03-24T04:59:51.459Z,76.40
2024-03-24T05:02:19.317Z,75.88
2024-03-24T05:04:47.249Z,75.77
2024-03-24T05:07:15.158Z,75.44
2024-03-24T05:09:43.692Z,75.65
2024-03-24T05:12:11.511Z,76.47
2024-03-24T05:14:39.355Z,75.61
2024-03-24T05:17:07.179Z,75.44
2024-03-24T05:19:35.003Z,75.21
2024-03-24T05:22:04.144Z,75.29
2024-03-24T05:24:34.200Z,74.95
2024-03-24T05:27:02.041Z,75.17
2024-03-24T05:29:29.846Z,74.74
2024-03-24T05:32:01.183Z,74.31
2024-03-24T05:34:29.565Z,73.71
2024-03-24T05:36:57.382Z,73.41
2024-03-24T05:39:25.196Z,72.84
2024-03-24T05:41:53.091Z,72.48
2024-03-24T05:44:21.111Z,72.21
2024-03-24T05:46:49.472Z,72.24
2024-03-24T05:49:17.365Z,72.29
2024-03-24T05:51:45.233Z,72.28
2024-03-24T05:54:13.026Z,72.24
2024-03-24T05:56:40.906Z,71.61
2024-03-24T05:59:09.239Z,71.27
2024-03-24T06:01:39.008Z,70.70
2024-03-24T06:04:06.985Z,69.72
2024-03-24T06:06:34.841Z,68.80
2024-03-24T06:09:02.768Z,67.83
2024-03-24T06:11:30.636Z,67.46
2024-03-24T06:13:58.493Z,68.73
2024-03-24T06:16:27.339Z,69.82
2024-03-24T06:18:55.832Z,69.36
2024-03-24T06:21:23.655Z,69.27
2024-03-24T06:23:54.938Z,68.75
2024-03-24T06:26:23.260Z,68.51
2024-03-24T06:28:51.169Z,68.35
2024-03-24T06:31:19.040Z,68.13
2024-03-24T06:33:47.424Z,68.19
2024-03-24T06:36:15.315Z,68.13
2024-03-24T06:38:43.149Z,67.79
2024-03-24T06:41:11.652Z,67.69
2024-03-24T06:43:43.299Z,67.15
2024-03-24T06:46:11.272Z,66.88
2024-03-24T06:48:39.151Z,66.39
2024-03-24T06:51:07.067Z,65.43
2024-03-24T06:53:34.872Z,62.44
2024-03-24T06:56:03.009Z,58.96
2024-03-24T06:58:30.852Z,55.02
2024-03-24T07:00:58.697Z,47.62
2024-03-24T07:03:26.571Z,47.16
2024-03-24T07:05:54.469Z,44.58
2024-03-24T07:08:22.332Z,42.60
2024-03-24T07:10:53.475Z,40.66
2024-03-24T07:13:21.356Z,36.68
2024-03-24T07:15:52.707Z,37.97
2024-03-24T07:18:21.828Z,36.99
2024-03-24T07:20:58.758Z,38.05
2024-03-24T07:23:26.940Z,36.11
2024-03-24T07:25:54.840Z,34.65
2024-03-24T07:28:22.913Z,33.40
2024-03-24T07:30:50.806Z,31.75
2024-03-24T07:33:18.687Z,32.63
2024-03-24T07:35:46.627Z,32.29
2024-03-24T07:38:16.348Z,30.27
2024-03-24T07:40:44.932Z,29.62
2024-03-24T07:43:12.768Z,29.74
2024-03-24T07:45:40.583Z,29.77
2024-03-24T07:48:08.503Z,29.92
2024-03-24T07:50:36.343Z,29.49
2024-03-24T07:53:06.584Z,28.90
2024-03-24T07:55:34.639Z,30.03
2024-03-24T07:58:02.496Z,31.15
2024-03-24T08:00:30.495Z,31.45
2024-03-24T08:02:58.498Z,31.14
2024-03-24T08:05:26.955Z,30.78
2024-03-24T08:07:56.501Z,31.40
2024-03-24T08:10:25.338Z,32.36
2024-03-24T08:12:53.178Z,34.04
2024-03-24T08:15:21.243Z,35.86
2024-03-24T08:17:49.095Z,37.48
2024-03-24T08:20:16.971Z,38.77
2024-03-24T08:22:44.815Z,39.65
2024-03-24T08:25:12.654Z,40.10
2024-03-24T08:27:40.502Z,41.04
2024-03-24T08:30:08.926Z,41.73
2024-03-24T08:32:36.799Z,42.75
2024-03-24T08:35:05.925Z,43.54
2024-03-24T08:37:33.806Z,44.04
2024-03-24T08:40:01.872Z,44.50
2024-03-24T08:42:30.602Z,45.65
2024-03-24T08:44:58.450Z,46.44
2024-03-24T08:47:26.929Z,45.89
2024-03-24T08:49:54.782Z,46.37
2024-03-24T08:52:22.775Z,47.61
2024-03-24T08:54:50.565Z,48.56
2024-03-24T08:57:18.362Z,49.70
2024-03-24T08:59:46.334Z,49.97
2024-03-24T09:02:14.404Z,51.00
2024-03-24T09:04:42.257Z,51.17
2024-03-24T09:07:10.470Z,51.76
2024-03-24T09:09:38.410Z,52.15
2024-03-24T09:12:06.739Z,53.40
2024-03-24T09:14:34.702Z,53.85
2024-03-24T09:17:02.551Z,55.90
2024-03-24T09:19:30.413Z,58.28
2024-03-24T09:21:58.264Z,59.85
2024-03-24T09:24:26.150Z,59.89
2024-03-24T09:26:55.846Z,61.13
2024-03-24T09:29:24.954Z,60.43
2024-03-24T09:31:53.049Z,60.59
2024-03-24T09:34:23.640Z,60.50
2024-03-24T09:36:51.804Z,60.32
2024-03-24T09:39:19.715Z,60.37
2024-03-24T09:41:47.605Z,60.03
2024-03-24T09:44:16.296Z,60.52
2024-03-24T09:46:46.276Z,60.47
2024-03-24T09:49:16.660Z,60.64
2024-03-24T09:51:46.177Z,60.96
2024-03-24T09:54:15.528Z,60.58
2024-03-24T09:56:46.154Z,61.76
2024-03-24T09:59:14.055Z,62.13
2024-03-24T10:01:42.745Z,62.38
2024-03-24T10:04:11.922Z,61.86
2024-03-24T10:06:39.811Z,61.57
2024-03-24T10:09:07.626Z,61.05
2024-03-24T10:11:36.087Z,61.47
2024-03-24T10:14:08.216Z,61.64
2024-03-24T10:16:36.545Z,61.38
2024-03-24T10:19:15.629Z,61.38
2024-03-24T10:21:43.511Z,61.43
2024-03-24T10:24:11.342Z,61.43
2024-03-24T10:26:39.173Z,63.02
2024-03-24T10:29:07.334Z,63.23
2024-03-24T10:31:37.427Z,62.62
2024-03-24T10:34:05.668Z,62.31
2024-03-24T10:36:38.518Z,62.60
2024-03-24T10:39:10.184Z,62.84
2024-03-24T10:41:38.953Z,62.84
2024-03-24T10:44:10.314Z,63.70
2024-03-24T10:46:41.294Z,64.12
2024-03-24T10:49:14.153Z,64.65
2024-03-24T10:51:43.095Z,64.12
2024-03-24T10:54:11.701Z,64.46
2024-03-24T10:56:40.756Z,64.78
2024-03-24T10:59:11.316Z,63.95
2024-03-24T11:01:40.436Z,64.88
2024-03-24T11:04:09.685Z,64.71
2024-03-24T11:06:39.416Z,65.73
2024-03-24T11:09:07.888Z,64.74
2024-03-24T11:11:38.109Z,64.99
2024-03-24T11:14:08.195Z,65.28
2024-03-24T11:16:36.520Z,65.87
2024-03-24T11:19:11.134Z,65.62
2024-03-24T11:21:43.168Z,65.85
2024-03-24T11:24:34.635Z,66.81
2024-03-24T11:27:05.417Z,66.13
2024-03-24T11:29:53.948Z,65.95
2024-03-24T11:32:53.244Z,67.15
2024-03-24T11:35:26.079Z,67.04
2024-03-24T11:37:55.601Z,67.24
2024-03-24T11:40:26.053Z,67.09
2024-03-24T11:42:57.288Z,66.98
2024-03-24T11:45:34.089Z,66.63
2024-03-24T11:48:25.450Z,66.62
2024-03-24T11:50:55.953Z,67.12
2024-03-24T11:53:24.889Z,68.12
2024-03-24T11:55:54.408Z,69.04
2024-03-24T11:58:24.087Z,70.24
2024-03-24T12:00:52.865Z,71.04
2024-03-24T12:03:21.069Z,73.64
2024-03-24T12:05:53.826Z,73.82
2024-03-24T12:08:25.871Z,74.55
2024-03-24T12:10:53.789Z,76.29
2024-03-24T12:13:21.695Z,75.98
2024-03-24T12:15:49.962Z,77.96
2024-03-24T12:18:18.558Z,78.25
2024-03-24T12:20:46.485Z,76.14
2024-03-24T12:23:16.477Z,74.66
2024-03-24T12:25:45.539Z,76.45
2024-03-24T12:28:18.234Z,75.40
2024-03-24T12:30:50.387Z,75.33
2024-03-24T12:33:23.765Z,75.18
2024-03-24T12:35:53.927Z,73.98
2024-03-24T12:38:22.124Z,72.95
2024-03-24T12:40:55.409Z,74.78
2024-03-24T12:43:27.930Z,76.96
2024-03-24T12:45:59.911Z,76.51
2024-03-24T12:48:30.649Z,76.55
2024-03-24T12:50:59.266Z,75.73
2024-03-24T12:53:55.130Z,76.41
2024-03-24T12:56:23.051Z,76.95
2024-03-24T12:58:51.722Z,77.13
2024-03-24T13:01:21.051Z,77.52
2024-03-24T13:03:48.988Z,77.73
2024-03-24T13:06:18.520Z,77.31
2024-03-24T13:08:48.671Z,76.00
2024-03-24T13:11:23.604Z,74.68
2024-03-24T13:13:51.929Z,74.21
2024-03-24T13:16:46.421Z,75.44
2024-03-24T13:19:14.268Z,71.64
2024-03-24T13:22:00.876Z,71.78
2024-03-24T13:24:35.828Z,73.83
2024-03-24T13:27:10.876Z,74.23
2024-03-24T13:29:38.682Z,70.46
2024-03-24T13:32:07.017Z,72.36
2024-03-24T13:34:34.968Z,70.49
2024-03-24T13:37:27.520Z,69.26
2024-03-24T13:40:15.851Z,70.04
2024-03-24T13:42:43.641Z,71.87
2024-03-24T13:45:26.549Z,72.36
2024-03-24T13:48:14.494Z,71.43
2024-03-24T13:50:43.492Z,72.05
2024-03-24T13:53:13.302Z,71.46
2024-03-24T13:55:44.225Z,70.32
2024-03-24T13:58:12.080Z,73.35
2024-03-24T14:00:40.532Z,73.17
2024-03-24T14:03:08.570Z,72.32
2024-03-24T14:05:36.407Z,69.28
2024-03-24T14:08:04.792Z,69.79
2024-03-24T14:10:32.710Z,69.98
2024-03-24T14:13:12.751Z,71.49
2024-03-24T14:15:50.052Z,71.26
2024-03-24T14:18:51.053Z,71.18
2024-03-24T14:21:33.044Z,72.37
2024-03-24T14:24:24.660Z,72.31
2024-03-24T14:26:52.782Z,71.53
2024-03-24T14:29:20.658Z,70.05
2024-03-24T14:31:48.480Z,69.85
2024-03-24T14:34:16.475Z,70.09
2024-03-24T14:37:02.613Z,70.31
2024-03-24T14:39:52.122Z,69.48
2024-03-24T14:42:26.047Z,69.72
2024-03-24T14:45:20.376Z,69.70
2024-03-24T14:48:22.572Z,70.05
2024-03-24T14:50:50.601Z,70.21
2024-03-24T14:53:18.428Z,70.72
2024-03-24T14:55:46.300Z,71.18
2024-03-24T14:58:17.679Z,71.15
2024-03-24T15:00:46.678Z,71.36
2024-03-24T15:03:14.939Z,70.78
2024-03-24T15:05:43.392Z,70.51
2024-03-24T15:08:11.677Z,69.13
2024-03-24T15:10:40.391Z,69.29
2024-03-24T15:13:11.322Z,69.50
2024-03-24T15:15:39.675Z,68.88
2024-03-24T15:18:07.680Z,69.35
2024-03-24T15:20:35.509Z,69.60
2024-03-24T15:23:03.535Z,69.98
2024-03-24T15:25:31.399Z,69.94
2024-03-24T15:27:59.282Z,70.09
2024-03-24T15:30:27.162Z,70.25
2024-03-24T15:32:56.083Z,70.39
2024-03-24T15:35:23.920Z,70.50
2024-03-24T15:37:55.015Z,70.55
2024-03-24T15:40:22.871Z,70.71
2024-03-24T15:42:50.736Z,71.05
2024-03-24T15:45:18.550Z,71.03
2024-03-24T15:47:47.390Z,71.89
2024-03-24T15:50:15.464Z,71.72
2024-03-24T15:52:43.748Z,70.88
2024-03-24T15:55:11.564Z,70.97
2024-03-24T15:58:04.447Z,71.14
2024-03-24T16:00:41.795Z,71.17
2024-03-24T16:03:09.713Z,70.82
2024-03-24T16:05:37.637Z,71.70
2024-03-24T16:08:05.918Z,71.54
2024-03-24T16:10:33.756Z,71.52
2024-03-24T16:13:14.648Z,72.17
2024-03-24T16:15:42.556Z,72.16
2024-03-24T16:18:10.447Z,71.59
2024-03-24T16:20:56.125Z,71.81
2024-03-24T16:23:26.364Z,71.99
2024-03-24T16:25:54.258Z,71.76
2024-03-24T16:28:24.523Z,71.66
2024-03-24T16:30:52.444Z,72.31
2024-03-24T16:33:27.519Z,72.58
2024-03-24T16:35:58.164Z,72.24
2024-03-24T16:38:26.043Z,72.34
2024-03-24T16:40:54.870Z,72.16
2024-03-24T16:43:23.381Z,71.33
2024-03-24T16:45:51.282Z,71.46
2024-03-24T16:48:19.634Z,71.88
2024-03-24T16:50:47.859Z,72.27
2024-03-24T16:53:15.787Z,72.49
2024-03-24T16:55:45.480Z,72.42
2024-03-24T16:58:16.631Z,72.79
2024-03-24T17:00:45.216Z,73.14
2024-03-24T17:03:13.572Z,72.72
2024-03-24T17:05:43.415Z,73.04
2024-03-24T17:08:11.212Z,73.64
2024-03-24T17:10:41.329Z,74.13
2024-03-24T17:13:09.259Z,73.63
2024-03-24T17:15:37.118Z,74.24
2024-03-24T17:18:06.827Z,73.69
2024-03-24T17:20:36.743Z,72.92
2024-03-24T17:23:06.250Z,73.29
2024-03-24T17:25:34.072Z,73.16
2024-03-24T17:28:02.112Z,73.35
2024-03-24T17:30:32.499Z,73.04
2024-03-24T17:33:01.715Z,73.35
2024-03-24T17:35:29.598Z,73.31
2024-03-24T17:37:57.470Z,73.30
2024-03-24T17:40:25.602Z,73.57
2024-03-24T17:42:53.534Z,73.45
2024-03-24T17:45:21.358Z,73.59
2024-03-24T17:47:49.304Z,74.21
2024-03-24T17:50:17.476Z,75.08
2024-03-24T17:52:45.576Z,74.65
2024-03-24T17:55:13.508Z,74.50
2024-03-24T17:57:41.380Z,73.81
2024-03-24T18:00:10.266Z,73.89
2024-03-24T18:02:38.175Z,73.79
2024-03-24T18:05:09.282Z,73.90
2024-03-24T18:07:55.781Z,73.92
2024-03-24T18:10:27.948Z,74.34
2024-03-24T18:12:58.405Z,74.78
2024-03-24T18:15:27.683Z,75.49
2024-03-24T18:17:56.669Z,75.37
2024-03-24T18:20:24.555Z,74.94
2024-03-24T18:22:53.751Z,74.58
2024-03-24T18:25:22.745Z,75.34
2024-03-24T18:27:51.054Z,75.34
2024-03-24T18:30:19.808Z,74.94
2024-03-24T18:32:54.219Z,75.23
2024-03-24T18:35:22.328Z,75.18
2024-03-24T18:37:50.460Z,74.97
2024-03-24T18:40:18.671Z,74.90
2024-03-24T18:42:46.515Z,74.89
2024-03-24T18:45:14.873Z,74.99
2024-03-24T18:47:42.715Z,76.15
2024-03-24T18:50:11.750Z,75.85
2024-03-24T18:52:39.638Z,75.88
2024-03-24T18:55:08.035Z,75.85
2024-03-24T18:57:35.880Z,75.68
2024-03-24T19:00:04.079Z,76.00
2024-03-24T19:02:32.208Z,76.28
2024-03-24T19:05:00.127Z,76.16
2024-03-24T19:07:28.193Z,75.79
2024-03-24T19:09:57.628Z,75.64
2024-03-24T19:12:25.488Z,76.32
2024-03-24T19:14:54.707Z,76.28
2024-03-24T19:17:24.747Z,76.15
2024-03-24T19:19:52.679Z,76.06
2024-03-24T19:22:22.293Z,76.68
2024-03-24T19:24:50.091Z,76.52
2024-03-24T19:27:18.030Z,76.06
2024-03-24T19:29:45.838Z,76.05
2024-03-24T19:32:13.783Z,76.48
2024-03-24T19:34:42.651Z,77.34
2024-03-24T19:37:11.521Z,76.95
2024-03-24T19:39:39.368Z,76.46
2024-03-24T19:42:07.347Z,76.11
2024-03-24T19:44:35.278Z,76.14
2024-03-24T19:47:06.295Z,76.47
2024-03-24T19:49:35.194Z,76.44
2024-03-24T19:52:03.723Z,76.49
2024-03-24T19:54:33.194Z,76.52
2024-03-24T19:57:01.436Z,77.17
2024-03-24T19:59:29.272Z,76.93
2024-03-24T20:01:57.184Z,76.91
2024-03-24T20:04:25.039Z,76.78
2024-03-24T20:06:52.870Z,76.68
2024-03-24T20:09:20.799Z,76.41
2024-03-24T20:11:48.666Z,76.84
2024-03-24T20:14:16.505Z,76.76
2024-03-24T20:16:44.380Z,77.02
2024-03-24T20:19:12.257Z,77.43
2024-03-24T20:21:40.232Z,77.35
2024-03-24T20:24:09.918Z,77.70
2024-03-24T20:26:37.835Z,77.59
2024-03-24T20:29:05.715Z,77.84
2024-03-24T20:31:34.633Z,77.98
2024-03-24T20:34:02.859Z,77.85
2024-03-24T20:36:30.702Z,77.64
2024-03-24T20:38:58.895Z,77.61
2024-03-24T20:41:28.196Z,77.40
2024-03-24T20:43:56.246Z,77.60
2024-03-24T20:46:24.073Z,77.52
2024-03-24T20:48:54.402Z,77.73
2024-03-24T20:51:23.144Z,77.80
2024-03-24T20:53:50.946Z,77.77
2024-03-24T20:56:20.255Z,78.02
2024-03-24T20:58:48.247Z,78.13
2024-03-24T21:01:16.371Z,77.99
2024-03-24T21:03:47.461Z,78.39
2024-03-24T21:06:15.473Z,78.42
2024-03-24T21:08:43.535Z,78.16
2024-03-24T21:11:11.409Z,78.36
2024-03-24T21:13:39.709Z,77.97
2024-03-24T21:16:10.598Z,77.75
2024-03-24T21:18:40.302Z,77.68
2024-03-24T21:21:08.271Z,77.75
2024-03-24T21:23:36.106Z,77.51
2024-03-24T21:26:04.434Z,77.77
2024-03-24T21:28:32.391Z,78.19
2024-03-24T21:31:00.329Z,78.25
2024-03-24T21:33:29.327Z,78.89
2024-03-24T21:35:57.459Z,79.24
2024-03-24T21:38:44.795Z,79.27
2024-03-24T21:41:32.245Z,79.00
2024-03-24T21:44:00.500Z,78.80
2024-03-24T21:46:28.482Z,78.68
2024-03-24T21:48:56.341Z,78.89
2024-03-24T21:51:24.489Z,78.65
2024-03-24T21:53:52.356Z,79.07
2024-03-24T21:56:20.432Z,79.11
2024-03-24T21:58:49.679Z,79.49
2024-03-24T22:01:17.725Z,79.67
2024-03-24T22:03:45.611Z,79.75
2024-03-24T22:06:13.849Z,79.58
2024-03-24T22:08:41.694Z,80.00
2024-03-24T22:11:09.599Z,80.13
2024-03-24T22:13:37.400Z,80.23
2024-03-24T22:16:07.778Z,79.82
2024-03-24T22:18:36.092Z,79.81
2024-03-24T22:21:04.008Z,79.49
2024-03-24T22:23:32.811Z,79.30
2024-03-24T22:26:02.551Z,78.86
2024-03-24T22:28:30.338Z,78.64
2024-03-24T22:30:58.167Z,79.12
2024-03-24T22:33:26.004Z,79.30
2024-03-24T22:35:53.845Z,79.39
2024-03-24T22:38:22.337Z,79.25
2024-03-24T22:40:50.326Z,78.66
2024-03-24T22:43:18.138Z,78.41
2024-03-24T22:45:47.322Z,78.51
2024-03-24T22:48:15.188Z,77.97
2024-03-24T22:50:43.322Z,78.58
2024-03-24T22:53:11.228Z,78.22
2024-03-24T22:55:39.072Z,78.61
2024-03-24T22:58:06.951Z,78.51
2024-03-24T23:00:34.800Z,78.15
2024-03-24T23:03:03.316Z,78.25
2024-03-24T23:05:31.379Z,77.95
2024-03-24T23:07:59.264Z,77.77
2024-03-24T23:10:27.189Z,78.08
2024-03-24T23:12:55.759Z,77.68
2024-03-24T23:15:23.635Z,77.67
2024-03-24T23:17:51.480Z,77.46
2024-03-24T23:20:19.447Z,77.70
2024-03-24T23:22:47.316Z,77.94
2024-03-24T23:25:16.148Z,77.71
2024-03-24T23:27:44.023Z,78.00
2024-03-24T23:30:13.478Z,77.82
2024-03-24T23:32:41.354Z,78.17
2024-03-24T23:35:12.400Z,78.11
2024-03-24T23:37:40.315Z,78.11
2024-03-24T23:40:08.722Z,77.71
2024-03-24T23:42:36.729Z,77.66
2024-03-24T23:45:05.025Z,77.17
2024-03-24T23:47:35.759Z,77.12
2024-03-24T23:50:05.312Z,77.00
2024-03-24T23:52:33.171Z,77.04
2024-03-24T23:55:01.132Z,76.88
2024-03-24T23:57:29.066Z,76.75
2024-03-24T23:59:56.890Z,77.00
